Lee Center, Illinois
Current Conditions -  °F | °C
As of 8:55 PM on Monday 20 Oct 2014 (Local Time) from KRPJ Reporting Station
Scattered Clouds Scattered Clouds  
Wind Chill: 47°   Ceiling: Unl
Heat Index: 49°   Visibility: 10mi
Dew Point: 40°   Wind: 5mph
Humidity: 72%   Direction: 50°NE
Pressure: 30.01"   Gusts: NA
Location:  41.75°N, 89.28°W
Report Text: KRPJ 210155Z AUTO 05004KT 10SM SCT055 10/05 A3001 RMK AO2 T00950047
Loading
Personal Weather Stations






























Interactive Weather Map
Tropical Storm Tracking
New forecast layout! Learn more

10-Day Weather Forecast

Advertisements
Track Severe Weather on mobile